sensor_id;sensor_type;location;lat;lon;timestamp;temperature;humidity
5868;DHT22;2960;49.142;7.768;2023-03-21T00:00:38;10.50;58.70
5868;DHT22;2960;49.142;7.768;2023-03-21T00:03:06;10.50;59.20
5868;DHT22;2960;49.142;7.768;2023-03-21T00:05:38;10.50;58.70
5868;DHT22;2960;49.142;7.768;2023-03-21T00:08:06;10.40;58.70
5868;DHT22;2960;49.142;7.768;2023-03-21T00:10:33;10.50;58.80
5868;DHT22;2960;49.142;7.768;2023-03-21T00:13:00;10.40;58.80
5868;DHT22;2960;49.142;7.768;2023-03-21T00:15:29;10.40;58.80
5868;DHT22;2960;49.142;7.768;2023-03-21T00:17:56;10.40;58.80
5868;DHT22;2960;49.142;7.768;2023-03-21T00:20:28;10.40;59.40
5868;DHT22;2960;49.142;7.768;2023-03-21T00:22:59;10.40;58.90
5868;DHT22;2960;49.142;7.768;2023-03-21T00:25:26;10.40;58.90
5868;DHT22;2960;49.142;7.768;2023-03-21T00:27:53;10.50;59.50
5868;DHT22;2960;49.142;7.768;2023-03-21T00:30:20;10.40;58.90
5868;DHT22;2960;49.142;7.768;2023-03-21T00:32:50;10.40;58.90
5868;DHT22;2960;49.142;7.768;2023-03-21T00:35:17;10.40;58.90
5868;DHT22;2960;49.142;7.768;2023-03-21T00:37:44;10.40;58.80
5868;DHT22;2960;49.142;7.768;2023-03-21T00:40:12;10.40;58.90
5868;DHT22;2960;49.142;7.768;2023-03-21T00:42:39;10.40;58.90
5868;DHT22;2960;49.142;7.768;2023-03-21T00:45:07;10.40;58.90
5868;DHT22;2960;49.142;7.768;2023-03-21T00:47:35;10.40;58.90
5868;DHT22;2960;49.142;7.768;2023-03-21T00:50:05;10.40;59.40
5868;DHT22;2960;49.142;7.768;2023-03-21T00:52:33;10.40;58.90
5868;DHT22;2960;49.142;7.768;2023-03-21T00:55:00;10.40;58.90
5868;DHT22;2960;49.142;7.768;2023-03-21T00:57:27;10.40;59.00
5868;DHT22;2960;49.142;7.768;2023-03-21T00:59:54;10.40;58.90
5868;DHT22;2960;49.142;7.768;2023-03-21T01:02:22;10.40;59.00
5868;DHT22;2960;49.142;7.768;2023-03-21T01:04:51;10.40;59.60
5868;DHT22;2960;49.142;7.768;2023-03-21T01:07:21;10.30;59.10
5868;DHT22;2960;49.142;7.768;2023-03-21T01:09:48;10.30;59.10
5868;DHT22;2960;49.142;7.768;2023-03-21T01:12:16;10.30;59.10
5868;DHT22;2960;49.142;7.768;2023-03-21T01:14:43;10.30;59.20
5868;DHT22;2960;49.142;7.768;2023-03-21T01:17:10;10.20;59.30
5868;DHT22;2960;49.142;7.768;2023-03-21T01:19:38;10.20;59.40
5868;DHT22;2960;49.142;7.768;2023-03-21T01:22:05;10.20;59.40
5868;DHT22;2960;49.142;7.768;2023-03-21T01:24:33;10.10;59.40
5868;DHT22;2960;49.142;7.768;2023-03-21T01:27:01;10.10;59.50
5868;DHT22;2960;49.142;7.768;2023-03-21T01:29:28;10.10;59.50
5868;DHT22;2960;49.142;7.768;2023-03-21T01:31:55;10.10;59.60
5868;DHT22;2960;49.142;7.768;2023-03-21T01:34:22;10.00;59.60
5868;DHT22;2960;49.142;7.768;2023-03-21T01:36:49;10.00;59.70
5868;DHT22;2960;49.142;7.768;2023-03-21T01:39:16;10.00;59.70
5868;DHT22;2960;49.142;7.768;2023-03-21T01:41:45;10.00;59.70
5868;DHT22;2960;49.142;7.768;2023-03-21T01:44:16;9.90;60.80
5868;DHT22;2960;49.142;7.768;2023-03-21T01:46:45;9.90;60.90
5868;DHT22;2960;49.142;7.768;2023-03-21T01:49:18;9.90;61.00
5868;DHT22;2960;49.142;7.768;2023-03-21T01:51:52;9.90;60.90
5868;DHT22;2960;49.142;7.768;2023-03-21T01:54:23;9.90;61.00
5868;DHT22;2960;49.142;7.768;2023-03-21T01:56:56;9.80;60.90
5868;DHT22;2960;49.142;7.768;2023-03-21T01:59:29;9.80;60.90
5868;DHT22;2960;49.142;7.768;2023-03-21T02:02:03;9.70;60.90
5868;DHT22;2960;49.142;7.768;2023-03-21T02:04:32;9.70;61.00
5868;DHT22;2960;49.142;7.768;2023-03-21T02:07:03;9.70;61.90
5868;DHT22;2960;49.142;7.768;2023-03-21T02:09:34;9.60;61.10
5868;DHT22;2960;49.142;7.768;2023-03-21T02:12:03;9.60;62.00
5868;DHT22;2960;49.142;7.768;2023-03-21T02:14:34;9.60;61.20
5868;DHT22;2960;49.142;7.768;2023-03-21T02:17:08;9.50;61.20
5868;DHT22;2960;49.142;7.768;2023-03-21T02:20:03;9.50;61.30
5868;DHT22;2960;49.142;7.768;2023-03-21T02:23:07;9.40;61.20
5868;DHT22;2960;49.142;7.768;2023-03-21T02:26:19;9.40;61.50
5868;DHT22;2960;49.142;7.768;2023-03-21T02:29:21;9.40;61.50
5868;DHT22;2960;49.142;7.768;2023-03-21T02:32:03;9.30;61.60
5868;DHT22;2960;49.142;7.768;2023-03-21T02:34:52;9.30;61.50
5868;DHT22;2960;49.142;7.768;2023-03-21T02:37:36;9.30;61.50
5868;DHT22;2960;49.142;7.768;2023-03-21T02:40:09;9.30;61.50
5868;DHT22;2960;49.142;7.768;2023-03-21T02:42:48;9.30;61.60
5868;DHT22;2960;49.142;7.768;2023-03-21T02:45:22;9.30;61.70
5868;DHT22;2960;49.142;7.768;2023-03-21T02:47:54;9.30;61.60
5868;DHT22;2960;49.142;7.768;2023-03-21T02:50:27;9.30;61.60
5868;DHT22;2960;49.142;7.768;2023-03-21T02:53:01;9.30;61.50
5868;DHT22;2960;49.142;7.768;2023-03-21T02:55:31;9.30;61.50
5868;DHT22;2960;49.142;7.768;2023-03-21T02:58:00;9.40;61.60
5868;DHT22;2960;49.142;7.768;2023-03-21T03:00:32;9.40;61.60
5868;DHT22;2960;49.142;7.768;2023-03-21T03:03:01;9.40;61.50
5868;DHT22;2960;49.142;7.768;2023-03-21T03:05:30;9.40;61.50
5868;DHT22;2960;49.142;7.768;2023-03-21T03:08:14;9.40;61.50
5868;DHT22;2960;49.142;7.768;2023-03-21T03:10:55;9.30;61.50
5868;DHT22;2960;49.142;7.768;2023-03-21T03:13:43;9.30;61.60
5868;DHT22;2960;49.142;7.768;2023-03-21T03:16:21;9.30;61.70
5868;DHT22;2960;49.142;7.768;2023-03-21T03:18:56;9.20;61.70
5868;DHT22;2960;49.142;7.768;2023-03-21T03:21:29;9.20;61.80
5868;DHT22;2960;49.142;7.768;2023-03-21T03:24:02;9.30;62.00
5868;DHT22;2960;49.142;7.768;2023-03-21T03:26:36;9.10;61.90
5868;DHT22;2960;49.142;7.768;2023-03-21T03:29:07;9.10;62.00
5868;DHT22;2960;49.142;7.768;2023-03-21T03:31:39;9.10;62.20
5868;DHT22;2960;49.142;7.768;2023-03-21T03:34:11;9.00;62.20
5868;DHT22;2960;49.142;7.768;2023-03-21T03:36:42;9.10;62.40
5868;DHT22;2960;49.142;7.768;2023-03-21T03:39:18;9.00;62.40
5868;DHT22;2960;49.142;7.768;2023-03-21T03:41:46;9.00;62.40
5868;DHT22;2960;49.142;7.768;2023-03-21T03:44:16;9.00;62.50
5868;DHT22;2960;49.142;7.768;2023-03-21T03:46:47;9.00;62.50
5868;DHT22;2960;49.142;7.768;2023-03-21T03:49:21;8.90;62.40
5868;DHT22;2960;49.142;7.768;2023-03-21T03:51:51;8.90;62.50
5868;DHT22;2960;49.142;7.768;2023-03-21T03:54:23;8.90;62.50
5868;DHT22;2960;49.142;7.768;2023-03-21T03:56:54;8.80;63.30
5868;DHT22;2960;49.142;7.768;2023-03-21T03:59:22;8.80;62.70
5868;DHT22;2960;49.142;7.768;2023-03-21T04:01:49;8.80;62.80
5868;DHT22;2960;49.142;7.768;2023-03-21T04:04:17;8.90;62.90
5868;DHT22;2960;49.142;7.768;2023-03-21T04:06:47;8.90;62.80
5868;DHT22;2960;49.142;7.768;2023-03-21T04:09:16;8.90;62.70
5868;DHT22;2960;49.142;7.768;2023-03-21T04:11:45;8.90;62.70
5868;DHT22;2960;49.142;7.768;2023-03-21T04:14:12;8.90;62.60
5868;DHT22;2960;49.142;7.768;2023-03-21T04:16:39;8.90;63.40
5868;DHT22;2960;49.142;7.768;2023-03-21T04:19:07;8.90;62.70
5868;DHT22;2960;49.142;7.768;2023-03-21T04:21:34;8.80;62.60
5868;DHT22;2960;49.142;7.768;2023-03-21T04:24:01;8.80;63.50
5868;DHT22;2960;49.142;7.768;2023-03-21T04:26:28;8.80;62.80
5868;DHT22;2960;49.142;7.768;2023-03-21T04:29:00;8.70;62.80
5868;DHT22;2960;49.142;7.768;2023-03-21T04:31:28;8.70;62.90
5868;DHT22;2960;49.142;7.768;2023-03-21T04:33:55;8.70;62.90
5868;DHT22;2960;49.142;7.768;2023-03-21T04:36:26;8.70;62.80
5868;DHT22;2960;49.142;7.768;2023-03-21T04:38:58;8.70;63.00
5868;DHT22;2960;49.142;7.768;2023-03-21T04:41:26;8.60;62.80
5868;DHT22;2960;49.142;7.768;2023-03-21T04:43:53;8.60;62.90
5868;DHT22;2960;49.142;7.768;2023-03-21T04:46:22;8.60;62.90
5868;DHT22;2960;49.142;7.768;2023-03-21T04:48:50;8.60;63.00
5868;DHT22;2960;49.142;7.768;2023-03-21T04:51:17;8.50;63.80
5868;DHT22;2960;49.142;7.768;2023-03-21T04:53:44;8.50;63.10
5868;DHT22;2960;49.142;7.768;2023-03-21T04:56:14;8.50;63.10
5868;DHT22;2960;49.142;7.768;2023-03-21T04:58:41;8.50;63.10
5868;DHT22;2960;49.142;7.768;2023-03-21T05:01:08;8.40;63.00
5868;DHT22;2960;49.142;7.768;2023-03-21T05:03:40;8.50;63.20
5868;DHT22;2960;49.142;7.768;2023-03-21T05:06:08;8.40;63.00
5868;DHT22;2960;49.142;7.768;2023-03-21T05:08:36;8.40;63.10
5868;DHT22;2960;49.142;7.768;2023-03-21T05:11:03;8.40;63.00
5868;DHT22;2960;49.142;7.768;2023-03-21T05:13:31;8.40;63.10
5868;DHT22;2960;49.142;7.768;2023-03-21T05:15:58;8.30;63.00
5868;DHT22;2960;49.142;7.768;2023-03-21T05:18:25;8.20;63.00
5868;DHT22;2960;49.142;7.768;2023-03-21T05:20:54;8.20;63.00
5868;DHT22;2960;49.142;7.768;2023-03-21T05:23:23;8.10;63.10
5868;DHT22;2960;49.142;7.768;2023-03-21T05:25:50;8.10;63.30
5868;DHT22;2960;49.142;7.768;2023-03-21T05:28:17;8.10;63.30
5868;DHT22;2960;49.142;7.768;2023-03-21T05:30:45;8.10;63.30
5868;DHT22;2960;49.142;7.768;2023-03-21T05:33:12;8.00;63.30
5868;DHT22;2960;49.142;7.768;2023-03-21T05:35:40;8.00;63.40
5868;DHT22;2960;49.142;7.768;2023-03-21T05:38:08;8.00;63.40
5868;DHT22;2960;49.142;7.768;2023-03-21T05:40:35;8.00;63.40
5868;DHT22;2960;49.142;7.768;2023-03-21T05:43:02;8.00;63.40
5868;DHT22;2960;49.142;7.768;2023-03-21T05:45:29;8.00;63.30
5868;DHT22;2960;49.142;7.768;2023-03-21T05:47:56;8.00;63.20
5868;DHT22;2960;49.142;7.768;2023-03-21T05:50:23;8.00;63.20
5868;DHT22;2960;49.142;7.768;2023-03-21T05:52:51;8.00;63.20
5868;DHT22;2960;49.142;7.768;2023-03-21T05:55:19;8.00;63.20
5868;DHT22;2960;49.142;7.768;2023-03-21T05:57:46;8.00;63.20
5868;DHT22;2960;49.142;7.768;2023-03-21T06:00:15;8.00;63.10
5868;DHT22;2960;49.142;7.768;2023-03-21T06:02:43;8.10;63.20
5868;DHT22;2960;49.142;7.768;2023-03-21T06:05:10;8.10;63.20
5868;DHT22;2960;49.142;7.768;2023-03-21T06:07:37;8.10;63.10
5868;DHT22;2960;49.142;7.768;2023-03-21T06:10:05;8.10;63.10
5868;DHT22;2960;49.142;7.768;2023-03-21T06:12:34;8.20;63.20
5868;DHT22;2960;49.142;7.768;2023-03-21T06:15:02;8.20;63.80
5868;DHT22;2960;49.142;7.768;2023-03-21T06:17:30;8.30;63.20
5868;DHT22;2960;49.142;7.768;2023-03-21T06:19:57;8.30;63.20
5868;DHT22;2960;49.142;7.768;2023-03-21T06:22:25;8.40;63.20
5868;DHT22;2960;49.142;7.768;2023-03-21T06:24:52;8.40;63.20
5868;DHT22;2960;49.142;7.768;2023-03-21T06:27:19;8.50;63.20
5868;DHT22;2960;49.142;7.768;2023-03-21T06:29:48;8.50;63.10
5868;DHT22;2960;49.142;7.768;2023-03-21T06:32:15;8.50;63.10
5868;DHT22;2960;49.142;7.768;2023-03-21T06:34:43;8.60;63.10
5868;DHT22;2960;49.142;7.768;2023-03-21T06:37:10;8.70;63.20
5868;DHT22;2960;49.142;7.768;2023-03-21T06:39:37;8.70;63.10
5868;DHT22;2960;49.142;7.768;2023-03-21T06:42:04;8.80;63.20
5868;DHT22;2960;49.142;7.768;2023-03-21T06:44:31;8.80;63.10
5868;DHT22;2960;49.142;7.768;2023-03-21T06:47:00;8.90;63.20
5868;DHT22;2960;49.142;7.768;2023-03-21T06:49:27;8.90;63.90
5868;DHT22;2960;49.142;7.768;2023-03-21T06:51:55;9.00;63.30
5868;DHT22;2960;49.142;7.768;2023-03-21T06:54:22;9.10;63.30
5868;DHT22;2960;49.142;7.768;2023-03-21T06:56:49;9.10;63.20
5868;DHT22;2960;49.142;7.768;2023-03-21T06:59:17;9.20;63.20
5868;DHT22;2960;49.142;7.768;2023-03-21T07:01:44;9.30;63.30
5868;DHT22;2960;49.142;7.768;2023-03-21T07:04:12;9.30;63.20
5868;DHT22;2960;49.142;7.768;2023-03-21T07:06:39;9.40;63.20
5868;DHT22;2960;49.142;7.768;2023-03-21T07:09:07;9.50;63.30
5868;DHT22;2960;49.142;7.768;2023-03-21T07:11:35;9.50;63.20
5868;DHT22;2960;49.142;7.768;2023-03-21T07:14:03;9.60;63.30
5868;DHT22;2960;49.142;7.768;2023-03-21T07:16:30;9.60;63.20
5868;DHT22;2960;49.142;7.768;2023-03-21T07:18:58;9.70;63.20
5868;DHT22;2960;49.142;7.768;2023-03-21T07:21:26;9.70;63.20
5868;DHT22;2960;49.142;7.768;2023-03-21T07:23:53;9.70;63.20
5868;DHT22;2960;49.142;7.768;2023-03-21T07:26:20;9.70;63.10
5868;DHT22;2960;49.142;7.768;2023-03-21T07:28:47;9.80;63.10
5868;DHT22;2960;49.142;7.768;2023-03-21T07:31:15;9.90;63.20
5868;DHT22;2960;49.142;7.768;2023-03-21T07:33:44;9.90;63.10
5868;DHT22;2960;49.142;7.768;2023-03-21T07:36:13;10.00;61.90
5868;DHT22;2960;49.142;7.768;2023-03-21T07:38:43;10.10;62.00
5868;DHT22;2960;49.142;7.768;2023-03-21T07:41:11;10.10;61.90
5868;DHT22;2960;49.142;7.768;2023-03-21T07:43:38;10.20;61.90
5868;DHT22;2960;49.142;7.768;2023-03-21T07:46:06;10.30;61.90
5868;DHT22;2960;49.142;7.768;2023-03-21T07:48:33;10.40;61.90
5868;DHT22;2960;49.142;7.768;2023-03-21T07:51:01;10.40;61.70
5868;DHT22;2960;49.142;7.768;2023-03-21T07:53:31;10.50;62.60
5868;DHT22;2960;49.142;7.768;2023-03-21T07:55:59;10.50;61.90
5868;DHT22;2960;49.142;7.768;2023-03-21T07:58:26;10.60;61.90
5868;DHT22;2960;49.142;7.768;2023-03-21T08:00:54;10.60;61.80
5868;DHT22;2960;49.142;7.768;2023-03-21T08:03:21;10.70;61.80
5868;DHT22;2960;49.142;7.768;2023-03-21T08:05:51;10.70;61.80
5868;DHT22;2960;49.142;7.768;2023-03-21T08:08:18;10.80;61.90
5868;DHT22;2960;49.142;7.768;2023-03-21T08:10:45;10.80;61.70
5868;DHT22;2960;49.142;7.768;2023-03-21T08:13:14;10.90;61.80
5868;DHT22;2960;49.142;7.768;2023-03-21T08:15:41;10.90;61.80
5868;DHT22;2960;49.142;7.768;2023-03-21T08:18:09;11.00;61.90
5868;DHT22;2960;49.142;7.768;2023-03-21T08:20:36;11.00;61.80
5868;DHT22;2960;49.142;7.768;2023-03-21T08:23:04;11.10;61.80
5868;DHT22;2960;49.142;7.768;2023-03-21T08:25:31;11.10;61.80
5868;DHT22;2960;49.142;7.768;2023-03-21T08:27:58;11.20;61.70
5868;DHT22;2960;49.142;7.768;2023-03-21T08:30:28;11.30;61.90
5868;DHT22;2960;49.142;7.768;2023-03-21T08:32:56;11.30;61.80
5868;DHT22;2960;49.142;7.768;2023-03-21T08:35:23;11.30;61.70
5868;DHT22;2960;49.142;7.768;2023-03-21T08:37:51;11.40;61.70
5868;DHT22;2960;49.142;7.768;2023-03-21T08:40:18;11.50;61.70
5868;DHT22;2960;49.142;7.768;2023-03-21T08:42:46;11.50;61.60
5868;DHT22;2960;49.142;7.768;2023-03-21T08:45:15;11.60;62.30
5868;DHT22;2960;49.142;7.768;2023-03-21T08:47:44;11.60;61.50
5868;DHT22;2960;49.142;7.768;2023-03-21T08:50:14;11.60;61.30
5868;DHT22;2960;49.142;7.768;2023-03-21T08:52:43;11.60;61.30
5868;DHT22;2960;49.142;7.768;2023-03-21T08:55:11;11.70;61.30
5868;DHT22;2960;49.142;7.768;2023-03-21T08:57:39;11.70;61.20
5868;DHT22;2960;49.142;7.768;2023-03-21T09:00:10;11.80;61.30
5868;DHT22;2960;49.142;7.768;2023-03-21T09:02:39;11.80;61.20
5868;DHT22;2960;49.142;7.768;2023-03-21T09:05:08;11.90;61.20
5868;DHT22;2960;49.142;7.768;2023-03-21T09:07:37;11.90;61.10
5868;DHT22;2960;49.142;7.768;2023-03-21T09:10:08;12.00;61.10
5868;DHT22;2960;49.142;7.768;2023-03-21T09:12:38;12.00;61.00
5868;DHT22;2960;49.142;7.768;2023-03-21T09:15:06;12.10;60.90
5868;DHT22;2960;49.142;7.768;2023-03-21T09:17:34;12.10;60.80
5868;DHT22;2960;49.142;7.768;2023-03-21T09:20:09;12.20;60.70
5868;DHT22;2960;49.142;7.768;2023-03-21T09:22:43;12.20;60.60
5868;DHT22;2960;49.142;7.768;2023-03-21T09:25:11;12.30;60.60
5868;DHT22;2960;49.142;7.768;2023-03-21T09:27:39;12.30;60.40
5868;DHT22;2960;49.142;7.768;2023-03-21T09:30:08;12.40;60.50
5868;DHT22;2960;49.142;7.768;2023-03-21T09:32:36;12.40;60.40
5868;DHT22;2960;49.142;7.768;2023-03-21T09:35:05;12.40;60.30
5868;DHT22;2960;49.142;7.768;2023-03-21T09:37:35;12.50;60.30
5868;DHT22;2960;49.142;7.768;2023-03-21T09:40:13;12.60;60.30
5868;DHT22;2960;49.142;7.768;2023-03-21T09:42:47;12.60;60.30
5868;DHT22;2960;49.142;7.768;2023-03-21T09:45:29;12.70;60.40
5868;DHT22;2960;49.142;7.768;2023-03-21T09:48:00;12.90;60.40
5868;DHT22;2960;49.142;7.768;2023-03-21T09:50:30;13.00;60.30
5868;DHT22;2960;49.142;7.768;2023-03-21T09:53:03;13.00;60.00
5868;DHT22;2960;49.142;7.768;2023-03-21T09:55:36;13.10;60.00
5868;DHT22;2960;49.142;7.768;2023-03-21T09:58:18;13.20;59.90
5868;DHT22;2960;49.142;7.768;2023-03-21T10:00:54;13.20;59.80
5868;DHT22;2960;49.142;7.768;2023-03-21T10:03:29;13.30;59.80
5868;DHT22;2960;49.142;7.768;2023-03-21T10:06:02;13.30;59.70
5868;DHT22;2960;49.142;7.768;2023-03-21T10:08:35;13.40;59.70
5868;DHT22;2960;49.142;7.768;2023-03-21T10:11:08;13.40;59.50
5868;DHT22;2960;49.142;7.768;2023-03-21T10:13:40;13.40;59.50
5868;DHT22;2960;49.142;7.768;2023-03-21T10:16:13;13.50;59.40
5868;DHT22;2960;49.142;7.768;2023-03-21T10:18:43;13.50;59.40
5868;DHT22;2960;49.142;7.768;2023-03-21T10:21:18;13.50;59.30
5868;DHT22;2960;49.142;7.768;2023-03-21T10:23:48;13.50;59.00
5868;DHT22;2960;49.142;7.768;2023-03-21T10:26:18;13.50;58.90
5868;DHT22;2960;49.142;7.768;2023-03-21T10:28:47;13.60;58.90
5868;DHT22;2960;49.142;7.768;2023-03-21T10:31:19;13.60;58.80
5868;DHT22;2960;49.142;7.768;2023-03-21T10:33:50;13.70;58.70
5868;DHT22;2960;49.142;7.768;2023-03-21T10:36:21;13.70;58.60
5868;DHT22;2960;49.142;7.768;2023-03-21T10:38:54;13.80;58.50
5868;DHT22;2960;49.142;7.768;2023-03-21T10:41:22;13.90;58.40
5868;DHT22;2960;49.142;7.768;2023-03-21T10:44:04;14.00;58.20
5868;DHT22;2960;49.142;7.768;2023-03-21T10:46:33;14.10;58.70
5868;DHT22;2960;49.142;7.768;2023-03-21T10:49:00;14.20;57.90
5868;DHT22;2960;49.142;7.768;2023-03-21T10:51:30;14.40;57.80
5868;DHT22;2960;49.142;7.768;2023-03-21T10:54:04;14.50;57.40
5868;DHT22;2960;49.142;7.768;2023-03-21T10:56:36;14.70;57.20
5868;DHT22;2960;49.142;7.768;2023-03-21T10:59:05;14.90;57.00
5868;DHT22;2960;49.142;7.768;2023-03-21T11:01:36;15.10;56.50
5868;DHT22;2960;49.142;7.768;2023-03-21T11:04:08;15.20;56.30
5868;DHT22;2960;49.142;7.768;2023-03-21T11:06:40;15.30;56.20
5868;DHT22;2960;49.142;7.768;2023-03-21T11:09:14;15.50;56.10
5868;DHT22;2960;49.142;7.768;2023-03-21T11:11:49;15.70;55.90
5868;DHT22;2960;49.142;7.768;2023-03-21T11:14:30;15.90;55.90
5868;DHT22;2960;49.142;7.768;2023-03-21T11:16:59;16.10;55.80
5868;DHT22;2960;49.142;7.768;2023-03-21T11:19:29;16.30;55.40
5868;DHT22;2960;49.142;7.768;2023-03-21T11:21:58;16.40;54.80
5868;DHT22;2960;49.142;7.768;2023-03-21T11:24:31;16.50;54.40
5868;DHT22;2960;49.142;7.768;2023-03-21T11:26:59;16.50;54.50
5868;DHT22;2960;49.142;7.768;2023-03-21T11:29:30;16.60;54.30
5868;DHT22;2960;49.142;7.768;2023-03-21T11:32:00;16.70;54.20
5868;DHT22;2960;49.142;7.768;2023-03-21T11:34:32;16.80;54.10
5868;DHT22;2960;49.142;7.768;2023-03-21T11:37:18;16.80;53.60
5868;DHT22;2960;49.142;7.768;2023-03-21T11:39:54;17.00;53.50
5868;DHT22;2960;49.142;7.768;2023-03-21T11:42:28;17.00;52.90
5868;DHT22;2960;49.142;7.768;2023-03-21T11:45:00;17.10;52.90
5868;DHT22;2960;49.142;7.768;2023-03-21T11:47:30;17.10;52.80
5868;DHT22;2960;49.142;7.768;2023-03-21T11:50:00;17.20;52.50
5868;DHT22;2960;49.142;7.768;2023-03-21T11:52:35;17.20;52.10
5868;DHT22;2960;49.142;7.768;2023-03-21T11:55:30;17.20;51.70
5868;DHT22;2960;49.142;7.768;2023-03-21T11:58:12;17.10;51.70
5868;DHT22;2960;49.142;7.768;2023-03-21T12:00:51;17.10;51.60
5868;DHT22;2960;49.142;7.768;2023-03-21T12:03:56;17.00;51.50
5868;DHT22;2960;49.142;7.768;2023-03-21T12:06:33;17.00;51.60
5868;DHT22;2960;49.142;7.768;2023-03-21T12:09:11;16.90;51.60
5868;DHT22;2960;49.142;7.768;2023-03-21T12:11:53;16.90;51.30
5868;DHT22;2960;49.142;7.768;2023-03-21T12:14:31;16.90;51.20
5868;DHT22;2960;49.142;7.768;2023-03-21T12:17:09;16.80;50.80
5868;DHT22;2960;49.142;7.768;2023-03-21T12:20:20;16.80;50.50
5868;DHT22;2960;49.142;7.768;2023-03-21T12:22:59;16.70;50.50
5868;DHT22;2960;49.142;7.768;2023-03-21T12:25:48;16.70;50.60
5868;DHT22;2960;49.142;7.768;2023-03-21T12:28:30;16.70;50.60
5868;DHT22;2960;49.142;7.768;2023-03-21T12:31:08;16.70;50.70
5868;DHT22;2960;49.142;7.768;2023-03-21T12:34:05;16.80;50.70
5868;DHT22;2960;49.142;7.768;2023-03-21T12:36:56;16.90;50.70
5868;DHT22;2960;49.142;7.768;2023-03-21T12:39:34;16.90;50.60
5868;DHT22;2960;49.142;7.768;2023-03-21T12:42:13;16.90;50.50
5868;DHT22;2960;49.142;7.768;2023-03-21T12:44:55;16.90;50.40
5868;DHT22;2960;49.142;7.768;2023-03-21T12:47:28;16.90;50.20
5868;DHT22;2960;49.142;7.768;2023-03-21T12:50:00;16.80;50.10
5868;DHT22;2960;49.142;7.768;2023-03-21T12:52:32;16.80;50.20
5868;DHT22;2960;49.142;7.768;2023-03-21T12:55:03;16.80;50.20
5868;DHT22;2960;49.142;7.768;2023-03-21T12:57:40;16.70;50.10
5868;DHT22;2960;49.142;7.768;2023-03-21T13:00:14;16.70;50.00
5868;DHT22;2960;49.142;7.768;2023-03-21T13:02:49;16.60;50.00
5868;DHT22;2960;49.142;7.768;2023-03-21T13:05:24;16.60;50.20
5868;DHT22;2960;49.142;7.768;2023-03-21T13:07:58;16.50;50.10
5868;DHT22;2960;49.142;7.768;2023-03-21T13:10:28;16.50;50.20
5868;DHT22;2960;49.142;7.768;2023-03-21T13:13:07;16.50;50.40
5868;DHT22;2960;49.142;7.768;2023-03-21T13:15:54;16.50;50.60
5868;DHT22;2960;49.142;7.768;2023-03-21T13:18:33;16.40;50.70
5868;DHT22;2960;49.142;7.768;2023-03-21T13:21:11;16.40;51.00
5868;DHT22;2960;49.142;7.768;2023-03-21T13:23:55;16.30;51.40
5868;DHT22;2960;49.142;7.768;2023-03-21T13:26:37;16.30;51.80
5868;DHT22;2960;49.142;7.768;2023-03-21T13:29:14;16.30;52.40
5868;DHT22;2960;49.142;7.768;2023-03-21T13:31:51;16.30;52.80
5868;DHT22;2960;49.142;7.768;2023-03-21T13:34:22;16.20;52.90
5868;DHT22;2960;49.142;7.768;2023-03-21T13:36:55;16.20;53.20
5868;DHT22;2960;49.142;7.768;2023-03-21T13:39:25;16.20;53.60
5868;DHT22;2960;49.142;7.768;2023-03-21T13:41:53;16.10;53.80
5868;DHT22;2960;49.142;7.768;2023-03-21T13:44:32;16.10;54.20
5868;DHT22;2960;49.142;7.768;2023-03-21T13:47:23;16.10;54.50
5868;DHT22;2960;49.142;7.768;2023-03-21T13:50:22;16.00;54.80
5868;DHT22;2960;49.142;7.768;2023-03-21T13:56:22;16.00;55.40
5868;DHT22;2960;49.142;7.768;2023-03-21T13:59:08;16.00;55.70
5868;DHT22;2960;49.142;7.768;2023-03-21T14:01:38;15.90;55.60
5868;DHT22;2960;49.142;7.768;2023-03-21T14:04:14;15.90;55.50
5868;DHT22;2960;49.142;7.768;2023-03-21T14:06:46;15.90;55.50
5868;DHT22;2960;49.142;7.768;2023-03-21T14:09:23;15.90;55.50
5868;DHT22;2960;49.142;7.768;2023-03-21T14:11:52;15.90;55.50
5868;DHT22;2960;49.142;7.768;2023-03-21T14:14:22;16.00;55.60
5868;DHT22;2960;49.142;7.768;2023-03-21T14:16:52;15.90;55.50
5868;DHT22;2960;49.142;7.768;2023-03-21T14:19:28;15.90;55.50
5868;DHT22;2960;49.142;7.768;2023-03-21T14:21:57;15.90;55.50
5868;DHT22;2960;49.142;7.768;2023-03-21T14:24:24;15.90;55.40
5868;DHT22;2960;49.142;7.768;2023-03-21T14:26:53;15.90;55.30
5868;DHT22;2960;49.142;7.768;2023-03-21T14:29:24;15.90;55.20
5868;DHT22;2960;49.142;7.768;2023-03-21T14:31:54;15.80;55.10
5868;DHT22;2960;49.142;7.768;2023-03-21T14:34:24;15.80;55.00
5868;DHT22;2960;49.142;7.768;2023-03-21T14:36:52;15.90;55.10
5868;DHT22;2960;49.142;7.768;2023-03-21T14:39:23;15.80;54.90
5868;DHT22;2960;49.142;7.768;2023-03-21T14:41:54;15.80;54.80
5868;DHT22;2960;49.142;7.768;2023-03-21T14:44:24;15.70;54.70
5868;DHT22;2960;49.142;7.768;2023-03-21T14:47:00;15.70;54.70
5868;DHT22;2960;49.142;7.768;2023-03-21T14:49:32;15.70;54.70
5868;DHT22;2960;49.142;7.768;2023-03-21T14:52:03;15.70;54.60
5868;DHT22;2960;49.142;7.768;2023-03-21T14:54:31;15.80;54.60
5868;DHT22;2960;49.142;7.768;2023-03-21T14:57:01;15.80;54.50
5868;DHT22;2960;49.142;7.768;2023-03-21T14:59:32;15.80;54.50
5868;DHT22;2960;49.142;7.768;2023-03-21T15:02:04;15.80;54.50
5868;DHT22;2960;49.142;7.768;2023-03-21T15:04:42;15.80;54.60
5868;DHT22;2960;49.142;7.768;2023-03-21T15:07:24;15.80;54.60
5868;DHT22;2960;49.142;7.768;2023-03-21T15:09:54;15.80;54.60
5868;DHT22;2960;49.142;7.768;2023-03-21T15:12:22;15.80;54.60
5868;DHT22;2960;49.142;7.768;2023-03-21T15:14:50;15.80;54.60
5868;DHT22;2960;49.142;7.768;2023-03-21T15:17:18;15.90;54.60
5868;DHT22;2960;49.142;7.768;2023-03-21T15:19:47;15.90;54.60
5868;DHT22;2960;49.142;7.768;2023-03-21T15:22:19;15.90;54.60
5868;DHT22;2960;49.142;7.768;2023-03-21T15:24:56;15.90;54.70
5868;DHT22;2960;49.142;7.768;2023-03-21T15:27:36;15.90;54.70
5868;DHT22;2960;49.142;7.768;2023-03-21T15:30:14;15.90;54.80
5868;DHT22;2960;49.142;7.768;2023-03-21T15:32:46;15.90;54.80
5868;DHT22;2960;49.142;7.768;2023-03-21T15:35:19;15.90;54.80
5868;DHT22;2960;49.142;7.768;2023-03-21T15:37:52;15.90;54.70
5868;DHT22;2960;49.142;7.768;2023-03-21T15:40:29;15.90;54.70
5868;DHT22;2960;49.142;7.768;2023-03-21T15:43:05;15.90;54.70
5868;DHT22;2960;49.142;7.768;2023-03-21T15:45:46;15.90;54.70
5868;DHT22;2960;49.142;7.768;2023-03-21T15:48:14;15.90;54.70
5868;DHT22;2960;49.142;7.768;2023-03-21T15:50:49;15.80;54.60
5868;DHT22;2960;49.142;7.768;2023-03-21T15:53:18;15.90;54.70
5868;DHT22;2960;49.142;7.768;2023-03-21T15:55:48;15.80;54.60
5868;DHT22;2960;49.142;7.768;2023-03-21T15:58:18;15.90;55.20
5868;DHT22;2960;49.142;7.768;2023-03-21T16:00:48;15.90;54.50
5868;DHT22;2960;49.142;7.768;2023-03-21T16:03:20;15.90;54.50
5868;DHT22;2960;49.142;7.768;2023-03-21T16:06:05;15.90;54.50
5868;DHT22;2960;49.142;7.768;2023-03-21T16:08:35;15.90;54.50
5868;DHT22;2960;49.142;7.768;2023-03-21T16:11:07;15.80;54.40
5868;DHT22;2960;49.142;7.768;2023-03-21T16:13:39;15.80;54.40
5868;DHT22;2960;49.142;7.768;2023-03-21T16:16:08;15.80;54.30
5868;DHT22;2960;49.142;7.768;2023-03-21T16:18:37;15.80;54.30
5868;DHT22;2960;49.142;7.768;2023-03-21T16:21:09;15.70;54.30
5868;DHT22;2960;49.142;7.768;2023-03-21T16:23:37;15.70;54.30
5868;DHT22;2960;49.142;7.768;2023-03-21T16:26:04;15.70;54.30
5868;DHT22;2960;49.142;7.768;2023-03-21T16:28:32;15.70;54.30
5868;DHT22;2960;49.142;7.768;2023-03-21T16:30:59;15.70;54.40
5868;DHT22;2960;49.142;7.768;2023-03-21T16:33:26;15.60;54.30
5868;DHT22;2960;49.142;7.768;2023-03-21T16:35:53;15.60;54.40
5868;DHT22;2960;49.142;7.768;2023-03-21T16:38:23;15.60;54.40